Angelo Coast Range Reserve, California Weather observations

Data are for 10 minute period ending at time listed.
 Day   Time   Solar   Ave.   Ave.  Ave.  Vector  Max.   Baro.   Total    
  of    of     Rad.   Air    Rel.  Wind   Wind   Wind  Press.  Precip.   
Year   Day            Temp.  Hum.  Speed  Dir.   Gust                    
2016   (PST)  Kw/m2    F      %     mph   deg.    mph    mb.     in.     
-------------------------------------------------------------------------
 179   21:30   0.00   64.2    53    0.1   213     0.7   967.6    0.00 
 179   21:40   0.00   63.9    54    0.0     0     0.0   967.6    0.00 
 179   21:50   0.00   63.3    54    0.1   213     0.8   967.7    0.00 
 179   22:00   0.00   62.9    55    0.0     0     0.0   967.7    0.00 
 179   22:10   0.00   62.3    56    0.0     0     0.0   967.7    0.00 
 179   22:20   0.00   61.3    58    0.0     0     0.0   967.7    0.00 
 179   22:30   0.00   60.9    59    0.0     0     0.0   967.6    0.00 
 179   22:40   0.00   60.6    59    0.0     0     0.0   967.7    0.00 
 179   22:50   0.00   60.2    60    0.0     0     0.0   967.7    0.00 
 179   23:00   0.00   59.5    62    0.0     0     0.0   967.6    0.00 
 179   23:10   0.00   59.0    63    0.0   213     0.2   967.7    0.00 
 179   23:20   0.00   58.6    64    0.0   213     0.4   967.7    0.00 
 179   23:30   0.00   58.3    64    0.0   213     0.5   967.7    0.00 
 179   23:40   0.00   57.8    66    0.0     0     0.0   967.8    0.00 
 179   23:50   0.00   57.4    66    0.0     0     0.0   967.8    0.00 
 180    0:00   0.00   57.0    67    0.0     0     0.0   967.8    0.00 
 180    0:10   0.00   56.6    68    0.0     0     0.0   967.8    0.00 
 180    0:20   0.00   56.2    68    0.0     0     0.0   967.7    0.00 
 180    0:30   0.00   55.9    69    0.0     0     0.0   967.7    0.00 
 180    0:40   0.00   55.4    69    0.0     0     0.0   967.7    0.00 
 180    0:50   0.00   55.1    70    0.0     0     0.0   967.7    0.00 
 180    1:00   0.00   54.8    72    0.0     0     0.0   967.7    0.00 
 180    1:10   0.00   54.6    73    0.0     0     0.0   967.7    0.00 
 180    1:20   0.00   54.2    74    0.0     0     0.0   967.6    0.00 
 180    1:30   0.00   53.9    76    0.0     0     0.0   967.6    0.00 
 180    1:40   0.00   53.5    77    0.2   331     1.9   967.6    0.00 
 180    1:50   0.00   53.2    78    0.7   327     1.4   967.7    0.00 
 180    2:00   0.00   53.0    78    0.3   323     1.2   967.7    0.00 
 180    2:10   0.00   52.8    78    0.8   341     1.4   967.8    0.00 
 180    2:20   0.00   52.6    79    1.0   346     2.0   967.7    0.00 
 180    2:30   0.00   52.3    80    0.6   330     1.7   967.7    0.00 
 180    2:40   0.00   52.0    81    0.2   320     0.9   967.7    0.00 
 180    2:50   0.00   51.9    81    0.4   330     1.0   967.7    0.00 
 180    3:00   0.00   51.5    82    0.6   336     1.2   967.6    0.00 
 180    3:10   0.00   51.2    83    0.8   327     1.1   967.6    0.00 
 180    3:20   0.00   50.7    84    1.1   318     1.5   967.6    0.00 
 180    3:30   0.00   50.6    85    0.7   332     1.3   967.6    0.00 
 180    3:40   0.00   50.6    85    0.6   320     1.2   967.6    0.00 
 180    3:50   0.00   50.4    85    0.4   318     1.4   967.6    0.00 
 180    4:00   0.00   50.2    86    0.1   318     0.5   967.6    0.00 
 180    4:10   0.00   49.9    86    0.9   323     1.4   967.6    0.00 
 180    4:20   0.00   49.7    87    0.6   345     1.4   967.6    0.00 
 180    4:30   0.00   49.3    88    0.4   327     0.9   967.6    0.00 
 180    4:40   0.00   49.2    88    0.3   327     0.9   967.7    0.00 
 180    4:50   0.00   48.8    89    0.4   327     0.9   967.9    0.00 
 180    5:00   0.00   48.7    90    1.1   343     1.5   968.0    0.00 
 180    5:10   0.00   48.8    90    1.1   312     1.7   968.0    0.00 
 180    5:20   0.01   48.7    89    0.9   331     1.4   968.0    0.00 
 180    5:30   0.01   48.6    90    1.0   341     1.8   967.9    0.00 
 180    5:40   0.01   48.6    90    1.3   335     2.2   967.9    0.00 
 180    5:50   0.01   48.6    89    0.7   311     1.4   968.0    0.00 
 180    6:00   0.01   48.7    89    0.2   325     0.9   968.0    0.00 
 180    6:10   0.01   48.7    89    0.0   325     0.4   968.0    0.00 
 180    6:20   0.01   48.8    88    0.0   325     0.6   968.0    0.00 
 180    6:30   0.01   48.9    88    0.9   325     1.2   968.0    0.00 
 180    6:40   0.01   49.1    87    0.1   325     0.7   967.9    0.00 
 180    6:50   0.02   49.4    87    0.1   325     0.8   967.8    0.00 
 180    7:00   0.03   50.1    85    0.8    33     1.8   967.8    0.00 
 180    7:10   0.03   51.1    83    0.3    42     1.8   967.8    0.00 
 180    7:20   0.03   52.5    80    0.0     0     0.0   967.8    0.00 
 180    7:30   0.03   53.6    78    0.3    71     1.2   967.8    0.00 
 180    7:40   0.03   54.8    76    0.1    58     0.9   967.9    0.00 
 180    7:50   0.05   56.2    74    0.6    58     1.3   967.8    0.00 
 180    8:00   0.21   58.0    71    0.4    83     1.4   967.7    0.00 
 180    8:10   0.52   61.7    64    0.6    83     1.4   967.6    0.00 
 180    8:20   0.56   66.0    57    1.2    94     1.8   967.4    0.00 
 180    8:30   0.58   68.3    54    1.2    94     1.9   967.3    0.00 
 180    8:40   0.61   70.6    52    1.8    96     2.2   967.2    0.00 
 180    8:50   0.64   72.7    49    1.6    89     2.0   967.1    0.00 
 180    9:00   0.67   73.0    50    1.7    99     2.3   967.0    0.00 
 180    9:10   0.69   73.9    48    1.5    99     2.2   967.0    0.00 
 180    9:20   0.72   74.6    46    0.9    98     1.9   967.1    0.00 
 180    9:30   0.74   75.9    44    1.0    88     2.3   967.2    0.00 
 180    9:40   0.76   77.0    40    0.8    83     2.6   967.2    0.00 
 180    9:50   0.78   78.2    38    1.4    68     3.7   967.3    0.00 
 180   10:00   0.81   79.7    35    1.3    89     3.6   967.2    0.00 
 180   10:10   0.82   83.0    32    1.6    61     3.5   967.2    0.00 
 180   10:20   0.84   85.5    28    1.5    34     3.8   967.2    0.00 
 180   10:30   0.86   85.4    30    1.9    74     5.3   967.2    0.00 
 180   10:40   0.87   86.2    29    2.3    42     5.8   967.3    0.00 
 180   10:50   0.88   87.7    28    2.2    28     5.6   967.3    0.00 
 180   11:00   0.90   88.0    27    1.8    20     6.6   967.2    0.00 
 180   11:10   0.91   88.3    27    3.0    32     6.6   967.2    0.00 
 180   11:20   0.91   88.2    26    3.5    38     8.0   967.2    0.00 
 180   11:30   0.92   88.7    26    2.9   346     8.8   967.1    0.00 
 180   11:40   0.93   89.5    25    2.3   329     5.2   967.1    0.00 
 180   11:50   0.93   89.5    25    1.8   311     4.6   966.9    0.00 
 180   12:00   0.93   90.9    24    1.9   300     6.9   966.9    0.00 
 180   12:10   0.94   90.6    25    2.3   339     5.9   966.9    0.00 
 180   12:20   0.94   90.8    24    2.4   325     6.6   966.9    0.00 
 180   12:30   0.94   90.2    24    2.8    19     7.8   966.9    0.00 
 180   12:40   0.94   90.8    24    2.6   313     6.0   966.9    0.00 
 180   12:50   0.94   91.3    24    3.2    30     9.3   966.9    0.00 
 180   13:00   0.93   91.1    24    4.1    49     7.9   967.0    0.00 
 180   13:10   0.93   91.3    22    3.2    10     7.3   966.9    0.00 
 180   13:20   0.93   91.8    22    4.1    36     8.5   966.8    0.00 
 180   13:30   0.87   91.3    23    3.0     6     6.7   966.7    0.00 
 180   13:40   0.91   92.6    22    3.4   348     8.6   966.7    0.00 
 180   13:50   0.89   91.9    23    3.5    16     9.0   966.6    0.00 
 180   14:00   0.88   91.7    24    4.0    29    11.0   966.6    0.00 
 180   14:10   0.86   92.1    24    3.6    18     9.4   966.4    0.00 
 180   14:20   0.84   91.6    26    3.6    35     7.7   966.3    0.00 
 180   14:30   0.82   91.2    25    3.0    32     8.8   966.3    0.00 
 180   14:40   0.79   91.0    24    4.3    26    10.6   966.3    0.00 
 180   14:50   0.77   91.7    24    4.7    35     9.1   966.3    0.00 
 180   15:00   0.75   91.8    24    3.7    27    10.6   966.2    0.00 
 180   15:10   0.73   91.9    25    2.9    76     9.3   966.1    0.00 
 180   15:20   0.70   91.5    25    3.8    22    10.9   966.1    0.00 
 180   15:30   0.68   91.1    25    3.6    96     9.2   966.0    0.00 
 180   15:40   0.65   89.9    26    5.2    54    12.3   966.0    0.00 
 180   15:50   0.62   90.7    27    3.1    50     7.5   966.0    0.00 
 180   16:00   0.59   91.2    27    2.6    37     7.5   966.0    0.00 
 180   16:10   0.57   90.5    27    5.9    31    12.5   966.0    0.00 
 180   16:20   0.54   89.2    24    5.4    50    13.9   966.0    0.00 
 180   16:30   0.51   89.3    26    4.7    48     9.6   966.0    0.00 
 180   16:40   0.48   89.4    26    3.4    45    10.7   965.9    0.00 
 180   16:50   0.45   89.0    26    3.6   336    13.3   966.0    0.00 
 180   17:00   0.42   88.8    27    3.0   357     8.6   965.9    0.00 
 180   17:10   0.37   88.1    26    2.5     7     8.4   965.9    0.00 
 180   17:20   0.36   87.8    26    2.5   340     6.6   965.8    0.00 
 180   17:30   0.32   86.3    27    1.7   324     6.1   965.8    0.00 
 180   17:40   0.30   85.6    27    2.2    11     7.0   965.8    0.00 
 180   17:50   0.27   85.3    29    1.8   331     4.6   965.8    0.00 
 180   18:00   0.14   83.0    32    1.6     6     6.1   965.9    0.00 
 180   18:10   0.03   81.5    35    1.1   299     4.1   965.9    0.00 
 180   18:20   0.03   81.0    36    2.6   350     6.4   966.0    0.00 
 180   18:30   0.03   80.9    37    2.1    13     5.5   966.0    0.00 
 180   18:40   0.03   80.5    37    3.3    30     8.3   966.1    0.00 
 180   18:50   0.02   79.7    38    1.7    16     4.3   966.0    0.00 
 180   19:00   0.01   78.7    40    2.9    18     7.2   966.0    0.00 
 180   19:10   0.01   77.8    42    2.3   355     5.0   966.0    0.00 
 180   19:20   0.01   76.2    45    2.0   354     3.7   966.0    0.00 
 180   19:30   0.01   74.4    48    1.7   345     3.0   966.0    0.00 
 180   19:40   0.00   73.3    49    1.1   327     2.1   966.0    0.00 
 180   19:50   0.00   72.2    51    1.1   321     2.5   966.0    0.00 
 180   20:00   0.00   71.2    52    0.3   331     1.0   966.0    0.00 
 180   20:10   0.00   69.9    55    0.3   326     1.1   965.9    0.00 
 180   20:20   0.00   69.1    56    0.0     0     0.0   965.9    0.00 
 180   20:30   0.00   68.2    58    0.1   326     0.9   965.9    0.00 
 180   20:40   0.00   67.4    59    0.0   326     0.4   965.9    0.00 
 180   20:50   0.00   66.7    61    0.0   326     0.7   965.8    0.00 
 180   21:00   0.00   66.0    62    0.0   326     0.7   965.9    0.00 
 180   21:10   0.00   65.3    64    0.0     0     0.0   966.0    0.00 
 180   21:20   0.00   64.7    64    0.1   326     0.7   966.0    0.00 

Return to Angelo Coast Range Reserve graphs page.


Western Regional Climate Center,wrcc@dri.edu